Terminal Aerodrome Forecast
Issued by NWS

Home | Current Version | Previous Version | Text Only | Print | Product List | Glossary On
Versions: 1 2 3 4 5 6 7 8 9 10 11 12 13 14 15 16 17 18 19
000
FTUS45 KPSR 281320 AAA
TAFSDL
TAF AMD
KSDL 281320Z 2813/2912 10004KT P6SM VCTS SCT090CB BKN120 BKN180
     FM281500 12006KT P6SM SCT120 BKN250
     FM282100 19008KT P6SM SCT120 BKN250
     FM290000 VRB06KT P6SM BKN120=

USA.gov is the U.S. government's official web portal to all federal, state and local government web resources and services.